createdAt,value
2023-06-12T00:17:02.222Z,4.20
2023-06-12T00:47:05.185Z,2.60
2023-06-12T01:17:09.037Z,3.40
2023-06-12T01:47:12.028Z,3.60
2023-06-12T02:17:15.754Z,3.17
2023-06-12T02:47:18.765Z,4.00
2023-06-12T03:17:22.455Z,3.70
2023-06-12T03:47:25.978Z,4.90
2023-06-12T04:17:30.196Z,4.90
2023-06-12T04:47:33.223Z,5.43
2023-06-12T05:17:36.706Z,5.85
2023-06-12T05:47:39.685Z,5.23
2023-06-12T06:17:43.311Z,5.17
2023-06-12T06:47:46.289Z,4.60
2023-06-12T07:17:49.716Z,4.63
2023-06-12T07:47:52.837Z,4.20
2023-06-12T08:17:55.946Z,3.23
2023-06-12T08:47:59.413Z,2.87
2023-06-12T09:18:03.759Z,3.13
2023-06-12T09:48:07.876Z,2.73
2023-06-12T10:18:11.377Z,2.40
2023-06-12T10:48:15.705Z,2.47
2023-06-12T11:18:20.231Z,2.00
2023-06-12T12:18:29.402Z,2.33
2023-06-12T12:48:32.430Z,2.10
2023-06-12T13:18:38.834Z,1.87
2023-06-12T13:48:42.141Z,2.20
2023-06-12T14:18:45.133Z,1.90
2023-06-12T14:48:49.082Z,2.10
2023-06-12T15:18:52.389Z,1.70
2023-06-12T15:48:55.878Z,2.30
2023-06-12T16:18:58.980Z,2.27
2023-06-12T16:49:02.738Z,2.10
2023-06-12T17:19:05.909Z,2.17
2023-06-12T17:49:09.611Z,1.90
2023-06-12T18:19:12.734Z,2.37
2023-06-12T18:49:16.058Z,2.30
2023-06-12T19:19:19.036Z,2.75
2023-06-12T19:49:22.607Z,2.63
2023-06-12T20:19:25.618Z,3.63
2023-06-12T20:49:29.096Z,4.10
2023-06-12T21:19:32.351Z,4.20
2023-06-12T21:49:35.773Z,4.03
2023-06-12T22:19:39.015Z,4.20
2023-06-12T22:49:42.129Z,3.55
2023-06-12T23:19:46.511Z,3.00
2023-06-12T23:49:49.486Z,3.03
